• Join FlightAware (Why Join?)
  • Login
  • US Flag 
Gobble Gobble! 
05:42AM EST


 

Airport Tracker/Info


-or-


 

Live Flight TrackerFlight Track Log ✈ ASQ5745 ✈ 13-May-2013 ✈ KIAD - KALB

Flight Track Log - Related Links

Times and Time Zones

All times are in EDT time to prevent confusion due to time zone crossing. See the ASQ5745 flight status page for this flight to view local times or setup timezone preferences in your user account.

Time Position Orientation Groundspeed Altitude Reporting Facility
EDT Latitude Longitude Course Direction KTS MPH feet Rate Location/Type
08:40AM 39.0000 -77.4333 North 193 222 2,400  Level Potomac TRACON
08:41AM 39.0667 -77.4500 349° North 249 287 5,700 3,180 Climbing Potomac TRACON
08:42AM 39.1167 -77.4667 346° North 249 287 8,800 2,460 Climbing Potomac TRACON
08:43AM 39.3146 -77.4500 North  Level FlightAware Approximate
08:43AM 39.2378 -77.5075 345° North 283 326 12,100  Level Washington Center
08:44AM 39.4099 -77.4500 North  Level FlightAware Approximate
08:45AM 39.5052 -77.4500 North  Level FlightAware Approximate
08:45AM 39.3186 -77.5392 343° North 293 337 14,700  Level Washington Center
08:46AM 39.4083 -77.5417 359° North 298 343 16,100 1,260 Climbing Washington Center
08:47AM 39.5981 -77.4694 16° North 382 440 18,300 1,260 Climbing New York Center
08:48AM 39.7092 -77.4558 North 393 452 19,500 1,500 Climbing New York Center
08:49AM 39.8219 -77.4531 North 398 458 21,300 1,740 Climbing New York Center
08:50AM 39.9306 -77.4497 North 398 458 23,100 1,440 Climbing New York Center
08:51AM 40.0439 -77.4389 North 398 458 24,200 900 Climbing New York Center
08:52AM 40.1422 -77.3586 32° Northeast 406 467 25,000 360 Climbing New York Center
08:53AM 40.2431 -77.2675 35° Northeast 430 495 25,000  Level New York Center
08:54AM 40.3525 -77.1744 33° Northeast 443 510 25,000  Level New York Center
08:55AM 40.4575 -77.0831 34° Northeast 456 525 25,000  Level New York Center
08:56AM 40.5700 -77.0058 28° Northeast 456 525 25,000  Level New York Center
08:57AM 40.6814 -76.9478 22° Northeast 445 512 25,000  Level New York Center
08:58AM 40.7994 -76.8842 22° Northeast 439 505 25,000  Level New York Center
08:59AM 40.9158 -76.8481 13° North 439 505 25,000  Level New York Center
09:00AM 41.0339 -76.8200 10° North 432 497 25,000  Level New York Center
09:01AM 41.1500 -76.7506 24° Northeast 432 497 25,000  Level New York Center
09:02AM 41.2744 -76.6758 24° Northeast 438 504 25,000  Level New York Center
09:03AM 41.3861 -76.6111 23° Northeast 443 510 25,000  Level New York Center
09:04AM 41.5019 -76.5408 24° Northeast 448 516 25,000  Level New York Center
09:05AM 41.6178 -76.4703 24° Northeast 448 516 25,000  Level New York Center
09:06AM 41.7275 -76.4017 25° Northeast 448 516 25,000  Level New York Center
09:07AM 41.8431 -76.3336 24° Northeast 454 522 25,000 -240 Level New York Center
09:10AM 42.1036 -76.1706 25° Northeast 454 522 24,200 -300 Descending Boston Center
09:11AM 42.2044 -76.0167 48° Northeast 442 509 24,000 -120 Descending Boston Center
09:12AM 42.2450 -75.8508 72° East 442 509 24,000  Level Boston Center
09:13AM 42.2872 -75.6847 71° East 450 518 24,000  Level Boston Center
09:14AM 42.3294 -75.5183 71° East 455 524 24,000  Level Boston Center
09:15AM 42.3692 -75.3544 72° East 461 531 24,000 -960 Level Boston Center
09:16AM 42.4131 -75.1906 70° East 461 531 22,100 -2,220 Descending Boston Center
09:17AM 42.4500 -75.0372 72° East 449 517 19,600 -2,460 Descending Boston Center
09:18AM 42.4867 -74.8839 72° East 426 490 17,200 -2,460 Descending Boston Center
09:19AM 42.5208 -74.7444 72° East 402 463 14,700 -2,580 Descending Boston Center
09:19AM 42.5436 -74.6522 71° East 385 443 12,900 -2,400 Descending Boston Center
09:20AM 42.5525 -74.6217 68° East 389 448 12,300 -1,680 Descending Boston Center
09:20AM 42.5819 -74.4958 72° East 371 427 11,100 -1,140 Descending Boston Center
09:21AM 42.5886 -74.4733 68° East 372 428 11,000 -540 Descending Boston Center
09:21AM 42.5989 -74.3636 83° East 369 425 10,600 -600 Descending Boston Center
09:22AM 42.5892 -74.3125 104° East 359 413 10,400 -1,140 Descending Boston Center
09:22AM 42.5758 -74.2447 105° East 309 356 9,500 -1,500 Descending Boston Center
09:23AM 42.5700 -74.2133 104° East 320 368 8,900 -2,040 Descending Boston Center
09:23AM 42.5525 -74.1367 107° East 289 333 7,500 -2,220 Descending Boston Center
09:24AM 42.5447 -74.0972 105° East 295 339 6,700 -2,100 Descending Boston Center
09:24AM 42.5331 -74.0375 105° East 291 335 5,600 -1,800 Descending Boston Center
09:25AM 42.5378 -74.0011 80° East 280 322 4,900 -1,680 Descending Boston Center
09:25AM 42.5447 -73.9364 82° East 275 316 3,900 -1,440 Descending Boston Center
09:26AM 42.5536 -73.8944 74° East 260 299 3,500 -840 Descending Boston Center
09:26AM 42.5769 -73.8583 49° Northeast 228 262 3,100 -600 Descending Boston Center
09:27AM 42.5919 -73.8361 47° Northeast 232 267 2,900 -600 Descending Boston Center
09:27AM 42.6131 -73.8056 47° Northeast 190 219 2,500 -720 Descending Boston Center